createdAt,value
2022-10-29T00:01:47.141Z,2.80
2022-10-29T00:04:20.011Z,2.45
2022-10-29T00:06:52.993Z,2.08
2022-10-29T00:09:26.070Z,3.20
2022-10-29T00:14:32.334Z,1.95
2022-10-29T00:17:06.480Z,2.03
2022-10-29T00:19:39.528Z,2.95
2022-10-29T00:24:45.091Z,2.53
2022-10-29T00:27:17.935Z,2.13
2022-10-29T00:29:51.206Z,2.35
2022-10-29T00:34:59.290Z,2.28
2022-10-29T00:37:32.295Z,2.17
2022-10-29T00:42:38.629Z,2.22
2022-10-29T00:47:54.638Z,1.77
2022-10-29T00:50:27.905Z,2.80
2022-10-29T00:53:02.401Z,2.42
2022-10-29T00:55:35.345Z,2.95
2022-10-29T00:58:08.428Z,2.28
2022-10-29T01:03:15.558Z,2.58
2022-10-29T01:05:50.476Z,2.03
2022-10-29T01:08:24.147Z,2.05
2022-10-29T01:11:04.732Z,2.17
2022-10-29T01:13:53.947Z,1.98
2022-10-29T01:16:34.296Z,1.88
2022-10-29T01:19:16.422Z,1.73
2022-10-29T01:21:54.456Z,2.30
2022-10-29T01:25:01.004Z,1.80
2022-10-29T01:27:56.978Z,1.88
2022-10-29T01:30:49.277Z,1.90
2022-10-29T01:33:26.428Z,1.85
2022-10-29T01:36:07.293Z,1.70
2022-10-29T01:38:51.065Z,1.85
2022-10-29T01:41:33.043Z,1.73
2022-10-29T01:44:13.507Z,1.60
2022-10-29T01:46:53.646Z,1.65
2022-10-29T01:49:33.867Z,2.22
2022-10-29T01:52:10.052Z,2.22
2022-10-29T01:54:43.464Z,1.95
2022-10-29T01:57:30.233Z,2.00
2022-10-29T02:00:07.238Z,1.63
2022-10-29T02:03:17.832Z,2.50
2022-10-29T02:06:01.279Z,1.40
2022-10-29T02:08:41.248Z,2.10
2022-10-29T02:11:18.961Z,1.70
2022-10-29T02:13:58.176Z,1.92
2022-10-29T02:16:32.779Z,1.60
2022-10-29T02:19:10.218Z,2.15
2022-10-29T02:21:44.305Z,1.67
2022-10-29T02:24:17.130Z,1.60
2022-10-29T02:26:49.965Z,1.63
2022-10-29T02:29:22.756Z,1.63
2022-10-29T02:31:57.761Z,1.80
2022-10-29T02:34:32.163Z,1.48
2022-10-29T02:37:06.679Z,1.75
2022-10-29T02:39:39.794Z,1.85
2022-10-29T02:42:14.511Z,1.60
2022-10-29T02:44:48.593Z,1.67
2022-10-29T02:47:25.885Z,2.38
2022-10-29T02:50:00.308Z,2.22
2022-10-29T02:52:33.132Z,1.65
2022-10-29T02:55:06.870Z,1.52
2022-10-29T02:57:39.941Z,1.73
2022-10-29T03:02:46.654Z,1.98
2022-10-29T03:05:20.718Z,1.77
2022-10-29T03:07:53.549Z,1.25
2022-10-29T03:10:26.886Z,1.80
2022-10-29T03:13:00.255Z,1.75
2022-10-29T03:15:33.250Z,1.85
2022-10-29T03:20:45.445Z,1.42
2022-10-29T03:23:18.706Z,1.67
2022-10-29T03:25:55.774Z,1.40
2022-10-29T03:28:30.695Z,1.48
2022-10-29T03:31:03.470Z,1.40
2022-10-29T03:33:38.703Z,2.05
2022-10-29T03:36:12.796Z,1.60
2022-10-29T03:38:45.602Z,1.58
2022-10-29T03:41:19.768Z,1.38
2022-10-29T03:46:34.155Z,1.42
2022-10-29T03:49:08.708Z,1.30
2022-10-29T03:51:43.547Z,2.03
2022-10-29T03:54:16.632Z,1.30
2022-10-29T03:56:51.714Z,1.48
2022-10-29T03:59:27.463Z,1.60
2022-10-29T04:02:00.526Z,1.63
2022-10-29T04:04:37.816Z,1.50
2022-10-29T04:07:15.753Z,1.20
2022-10-29T04:09:48.850Z,1.63
2022-10-29T04:12:22.035Z,1.92
2022-10-29T04:14:55.080Z,1.55
2022-10-29T04:17:28.072Z,1.48
2022-10-29T04:20:01.079Z,1.40
2022-10-29T04:31:14.144Z,1.67
2022-10-29T04:33:46.924Z,1.63
2022-10-29T04:36:19.658Z,1.23
2022-10-29T04:38:53.847Z,1.83
2022-10-29T04:41:26.561Z,1.90
2022-10-29T04:43:59.338Z,1.50
2022-10-29T04:46:33.274Z,1.83
2022-10-29T04:49:05.998Z,1.35
2022-10-29T04:51:38.799Z,2.30
2022-10-29T04:54:13.067Z,1.73
2022-10-29T04:56:45.744Z,1.85
2022-10-29T04:59:18.450Z,1.88
2022-10-29T05:01:51.330Z,1.92
2022-10-29T05:04:23.973Z,2.20
2022-10-29T05:06:56.845Z,2.00
2022-10-29T05:09:30.991Z,1.48
2022-10-29T05:12:03.757Z,1.45
2022-10-29T05:14:36.503Z,1.67
2022-10-29T05:17:09.429Z,1.63
2022-10-29T05:22:17.586Z,1.67
2022-10-29T05:24:51.764Z,1.90
2022-10-29T05:27:24.566Z,1.65
2022-10-29T05:29:57.360Z,1.60
2022-10-29T05:32:30.305Z,1.35
2022-10-29T05:37:35.811Z,1.73
2022-10-29T05:40:12.067Z,1.75
2022-10-29T05:42:47.318Z,1.63
2022-10-29T05:45:20.279Z,2.03
2022-10-29T05:47:58.299Z,1.70
2022-10-29T05:50:32.405Z,1.65
2022-10-29T05:53:07.123Z,1.77
2022-10-29T05:55:42.309Z,1.90
2022-10-29T05:58:15.249Z,2.25
2022-10-29T06:00:48.042Z,2.17
2022-10-29T06:03:22.808Z,2.88
2022-10-29T06:05:55.539Z,2.30
2022-10-29T06:08:28.672Z,2.22
2022-10-29T06:11:04.351Z,2.20
2022-10-29T06:13:37.185Z,2.42
2022-10-29T06:16:09.957Z,3.08
2022-10-29T06:18:42.662Z,1.90
2022-10-29T06:21:15.561Z,2.38
2022-10-29T06:23:48.260Z,2.58
2022-10-29T06:28:55.537Z,2.70
2022-10-29T06:31:28.685Z,2.55
2022-10-29T06:34:01.642Z,2.38
2022-10-29T06:36:34.466Z,2.70
2022-10-29T06:39:07.151Z,2.80
2022-10-29T06:41:41.161Z,2.83
2022-10-29T06:44:13.870Z,2.58
2022-10-29T06:46:46.530Z,2.63
2022-10-29T06:49:19.561Z,2.53
2022-10-29T06:54:25.194Z,3.38
2022-10-29T06:56:59.335Z,3.80
2022-10-29T06:59:32.085Z,3.13
2022-10-29T07:02:04.885Z,3.75
2022-10-29T07:04:37.672Z,3.75
2022-10-29T07:07:10.325Z,4.43
2022-10-29T07:09:43.348Z,3.80
2022-10-29T07:14:49.864Z,4.00
2022-10-29T07:17:22.548Z,4.20
2022-10-29T07:19:55.237Z,4.90
2022-10-29T07:22:31.135Z,4.10
2022-10-29T07:25:08.691Z,4.95
2022-10-29T07:27:42.773Z,4.20
2022-10-29T07:30:15.698Z,4.28
2022-10-29T07:32:48.566Z,5.43
2022-10-29T07:35:21.427Z,4.85
2022-10-29T07:37:54.443Z,4.55
2022-10-29T07:40:27.600Z,5.80
2022-10-29T07:43:01.710Z,5.75
2022-10-29T07:45:34.627Z,5.30
2022-10-29T07:48:08.664Z,5.35
2022-10-29T07:50:41.393Z,5.72
2022-10-29T07:53:14.352Z,5.13
2022-10-29T07:55:53.301Z,5.75
2022-10-29T07:58:27.657Z,5.95
2022-10-29T08:01:01.111Z,6.28
2022-10-29T08:03:33.884Z,6.18
2022-10-29T08:06:07.041Z,7.18
2022-10-29T08:08:39.717Z,7.80
2022-10-29T08:11:12.586Z,6.25
2022-10-29T08:13:46.631Z,6.72
2022-10-29T08:16:19.387Z,7.55
2022-10-29T08:18:52.295Z,6.32
2022-10-29T08:21:26.683Z,8.02
2022-10-29T08:23:59.419Z,6.65
2022-10-29T08:26:32.414Z,5.80
2022-10-29T08:31:39.018Z,7.90
2022-10-29T08:34:11.680Z,8.77
2022-10-29T08:36:44.415Z,8.45
2022-10-29T08:39:17.078Z,8.95
2022-10-29T08:42:02.084Z,8.88
2022-10-29T08:45:06.842Z,9.13
2022-10-29T08:47:51.843Z,10.48
2022-10-29T08:50:29.837Z,9.85
2022-10-29T08:53:23.338Z,10.60
2022-10-29T08:55:56.668Z,9.70
2022-10-29T08:58:34.435Z,10.02
2022-10-29T09:01:12.297Z,10.45
2022-10-29T09:03:45.204Z,11.77
2022-10-29T09:06:26.052Z,10.30
2022-10-29T09:09:11.639Z,12.85
2022-10-29T09:11:56.060Z,11.23
2022-10-29T09:14:45.513Z,10.50
2022-10-29T09:17:29.219Z,12.02
2022-10-29T09:20:17.672Z,11.80
2022-10-29T09:22:57.985Z,11.00
2022-10-29T09:25:34.149Z,12.07
2022-10-29T09:28:17.781Z,12.13
2022-10-29T09:30:58.389Z,11.07
2022-10-29T09:33:33.229Z,11.80
2022-10-29T09:36:15.264Z,12.07
2022-10-29T09:38:56.044Z,11.07
2022-10-29T09:41:32.847Z,10.55
2022-10-29T09:44:14.144Z,10.82
2022-10-29T09:46:56.545Z,11.55
2022-10-29T09:49:42.357Z,10.63
2022-10-29T09:52:19.191Z,10.98
2022-10-29T09:54:54.408Z,10.65
2022-10-29T09:57:30.084Z,10.70
2022-10-29T10:00:05.933Z,10.70
2022-10-29T10:02:48.803Z,10.93
2022-10-29T10:05:27.487Z,12.07
2022-10-29T10:08:12.129Z,11.75
2022-10-29T10:10:53.459Z,10.55
2022-10-29T10:13:28.959Z,11.55
2022-10-29T10:16:03.450Z,11.52
2022-10-29T10:21:28.676Z,9.95
2022-10-29T10:24:01.838Z,10.13
2022-10-29T10:26:39.356Z,10.32
2022-10-29T10:29:16.610Z,11.65
2022-10-29T10:31:51.110Z,10.35
2022-10-29T10:34:27.387Z,10.40
2022-10-29T10:37:05.536Z,11.35
2022-10-29T10:39:40.561Z,11.20
2022-10-29T10:42:19.782Z,11.68
2022-10-29T10:44:56.869Z,11.40
2022-10-29T10:47:33.062Z,10.45
2022-10-29T10:50:14.486Z,9.63
2022-10-29T10:52:49.592Z,11.00
2022-10-29T10:55:27.156Z,9.90
2022-10-29T10:58:05.558Z,10.35
2022-10-29T11:00:44.512Z,10.43
2022-10-29T11:06:07.738Z,9.55
2022-10-29T11:08:47.405Z,10.13
2022-10-29T11:11:23.942Z,10.30
2022-10-29T11:14:01.824Z,9.98
2022-10-29T11:16:40.663Z,8.88
2022-10-29T11:19:21.721Z,9.43
2022-10-29T11:22:03.374Z,10.25
2022-10-29T11:24:46.792Z,9.77
2022-10-29T11:27:29.340Z,10.00
2022-10-29T11:30:05.200Z,9.70
2022-10-29T11:32:52.104Z,9.65
2022-10-29T11:35:33.835Z,9.55
2022-10-29T11:38:15.305Z,10.38
2022-10-29T11:40:56.197Z,9.48
2022-10-29T11:43:28.966Z,8.90
2022-10-29T11:46:08.848Z,9.90
2022-10-29T11:48:53.416Z,9.55
2022-10-29T11:51:34.418Z,9.30
2022-10-29T11:54:16.701Z,9.23
2022-10-29T11:56:56.098Z,10.15
2022-10-29T11:59:43.051Z,9.02
2022-10-29T12:02:33.208Z,9.27
2022-10-29T12:05:14.885Z,9.98
2022-10-29T12:08:00.340Z,9.55
2022-10-29T12:10:48.739Z,9.40
2022-10-29T12:13:37.300Z,9.77
2022-10-29T12:16:24.319Z,8.50
2022-10-29T12:19:04.137Z,10.00
2022-10-29T12:21:44.784Z,8.75
2022-10-29T12:24:28.455Z,7.50
2022-10-29T12:27:08.929Z,8.90
2022-10-29T12:29:52.074Z,8.50
2022-10-29T12:32:31.599Z,8.45
2022-10-29T12:35:16.782Z,8.10
2022-10-29T12:38:06.636Z,8.57
2022-10-29T12:40:43.951Z,7.95
2022-10-29T12:43:22.923Z,7.32
2022-10-29T12:46:19.434Z,7.55
2022-10-29T12:49:06.916Z,7.97
2022-10-29T12:51:48.907Z,7.93
2022-10-29T12:54:38.439Z,7.00
2022-10-29T12:57:29.733Z,7.85
2022-10-29T13:00:40.065Z,7.72
2022-10-29T13:03:42.415Z,7.35
2022-10-29T13:06:49.805Z,8.02
2022-10-29T13:09:23.982Z,6.68
2022-10-29T13:11:58.408Z,7.68
2022-10-29T13:14:39.668Z,6.43
2022-10-29T13:17:27.425Z,6.85
2022-10-29T13:20:05.424Z,7.80
2022-10-29T13:22:56.298Z,6.63
2022-10-29T13:25:51.322Z,6.85
2022-10-29T13:28:50.588Z,6.50
2022-10-29T13:31:45.230Z,6.68
2022-10-29T13:34:56.411Z,6.88
2022-10-29T13:38:20.068Z,7.03
2022-10-29T13:41:14.109Z,7.20
2022-10-29T13:43:55.233Z,6.68
2022-10-29T13:46:45.867Z,7.07
2022-10-29T13:49:22.417Z,6.50
2022-10-29T13:51:59.139Z,6.28
2022-10-29T13:54:39.344Z,7.38
2022-10-29T13:57:21.935Z,6.60
2022-10-29T13:59:59.004Z,7.35
2022-10-29T14:02:47.517Z,7.45
2022-10-29T14:05:24.433Z,6.53
2022-10-29T14:08:01.609Z,7.22
2022-10-29T14:10:37.759Z,7.93
2022-10-29T14:13:29.505Z,6.68
2022-10-29T14:16:04.122Z,6.80
2022-10-29T14:18:38.642Z,8.18
2022-10-29T14:21:16.860Z,8.20
2022-10-29T14:24:00.219Z,7.28
2022-10-29T14:26:36.063Z,7.53
2022-10-29T14:29:20.442Z,6.25
2022-10-29T14:32:06.135Z,6.97
2022-10-29T14:34:40.658Z,7.35
2022-10-29T14:37:18.540Z,7.40
2022-10-29T14:39:58.779Z,6.45
2022-10-29T14:42:33.335Z,6.10
2022-10-29T14:45:17.256Z,7.05
2022-10-29T14:47:52.887Z,6.50
2022-10-29T14:50:27.679Z,6.05
2022-10-29T14:53:03.554Z,7.10
2022-10-29T14:55:40.132Z,6.93
2022-10-29T14:58:19.968Z,7.03
2022-10-29T15:00:57.618Z,6.72
2022-10-29T15:03:33.025Z,6.50
2022-10-29T15:06:15.070Z,7.07
2022-10-29T15:08:55.802Z,6.40
2022-10-29T15:11:39.404Z,6.18
2022-10-29T15:14:36.548Z,6.82
2022-10-29T15:17:12.914Z,7.30
2022-10-29T15:19:47.408Z,6.80
2022-10-29T15:22:25.344Z,6.68
2022-10-29T15:24:58.429Z,7.43
2022-10-29T15:27:31.670Z,6.97
2022-10-29T15:30:05.710Z,6.57
2022-10-29T15:32:39.895Z,7.10
2022-10-29T15:35:19.493Z,8.20
2022-10-29T15:37:53.242Z,7.07
2022-10-29T15:40:27.082Z,6.53
2022-10-29T15:43:28.078Z,6.53
2022-10-29T15:46:01.851Z,6.45
2022-10-29T15:48:37.802Z,6.10
2022-10-29T15:51:10.930Z,6.00
2022-10-29T15:56:16.459Z,6.30
2022-10-29T15:58:49.364Z,6.53
2022-10-29T16:01:22.088Z,6.03
2022-10-29T16:03:56.236Z,6.57
2022-10-29T16:06:29.174Z,5.75
2022-10-29T16:11:35.939Z,5.70
2022-10-29T16:14:11.755Z,7.13
2022-10-29T16:16:44.560Z,6.05
2022-10-29T16:19:18.796Z,6.22
2022-10-29T16:21:51.512Z,6.93
2022-10-29T16:24:24.395Z,6.15
2022-10-29T16:26:57.343Z,5.90
2022-10-29T16:32:04.957Z,5.63
2022-10-29T16:37:14.360Z,6.30
2022-10-29T16:39:47.066Z,5.95
2022-10-29T16:42:30.131Z,6.15
2022-10-29T16:47:35.780Z,5.30
2022-10-29T16:50:14.884Z,6.78
2022-10-29T16:52:47.693Z,6.20
2022-10-29T16:55:20.448Z,6.97
2022-10-29T16:57:53.279Z,5.78
2022-10-29T17:03:03.557Z,6.10
2022-10-29T17:05:44.433Z,6.15
2022-10-29T17:08:17.196Z,6.97
2022-10-29T17:10:50.257Z,6.78
2022-10-29T17:15:55.889Z,6.27
2022-10-29T17:18:28.554Z,5.57
2022-10-29T17:21:04.337Z,5.80
2022-10-29T17:23:37.016Z,5.60
2022-10-29T17:26:10.040Z,6.60
2022-10-29T17:28:42.979Z,6.50
2022-10-29T17:31:15.890Z,6.75
2022-10-29T17:36:22.558Z,6.83
2022-10-29T17:38:55.255Z,6.30
2022-10-29T17:41:27.981Z,6.72
2022-10-29T17:44:01.020Z,6.13
2022-10-29T17:46:33.890Z,5.50
2022-10-29T17:49:06.589Z,5.72
2022-10-29T17:51:40.701Z,5.43
2022-10-29T17:54:13.714Z,6.25
2022-10-29T17:56:46.543Z,5.38
2022-10-29T17:59:19.292Z,5.40
2022-10-29T18:04:27.678Z,5.88
2022-10-29T18:07:04.595Z,5.88
2022-10-29T18:09:37.683Z,6.47
2022-10-29T18:12:12.833Z,6.78
2022-10-29T18:14:45.632Z,5.82
2022-10-29T18:17:21.720Z,6.13
2022-10-29T18:19:54.476Z,5.95
2022-10-29T18:22:28.705Z,6.20
2022-10-29T18:25:04.254Z,6.15
2022-10-29T18:27:37.043Z,6.05
2022-10-29T18:30:10.742Z,5.97
2022-10-29T18:32:43.799Z,6.00
2022-10-29T18:35:16.646Z,6.32
2022-10-29T18:40:23.432Z,6.28
2022-10-29T18:42:56.155Z,6.00
2022-10-29T18:45:29.033Z,5.43
2022-10-29T18:48:01.888Z,6.00
2022-10-29T18:50:34.567Z,5.47
2022-10-29T18:53:08.704Z,5.57
2022-10-29T18:55:49.321Z,5.72
2022-10-29T18:58:22.825Z,5.78
2022-10-29T19:00:55.824Z,5.65
2022-10-29T19:06:08.180Z,5.88
2022-10-29T19:08:44.941Z,6.15
2022-10-29T19:11:19.739Z,6.38
2022-10-29T19:13:53.167Z,7.28
2022-10-29T19:16:27.169Z,6.60
2022-10-29T19:19:01.596Z,6.78
2022-10-29T19:21:35.669Z,6.60
2022-10-29T19:24:16.479Z,6.57
2022-10-29T19:26:49.181Z,6.10
2022-10-29T19:29:21.860Z,6.72
2022-10-29T19:31:54.627Z,6.82
2022-10-29T19:34:27.351Z,6.35
2022-10-29T19:37:00.048Z,6.38
2022-10-29T19:39:34.105Z,6.75
2022-10-29T19:42:07.119Z,6.60
2022-10-29T19:47:12.398Z,7.05
2022-10-29T19:49:46.825Z,6.53
2022-10-29T19:52:19.538Z,6.75
2022-10-29T19:54:53.683Z,6.05
2022-10-29T19:57:27.307Z,5.90
2022-10-29T20:00:00.135Z,6.32
2022-10-29T20:02:32.945Z,5.93
2022-10-29T20:07:39.133Z,5.80
2022-10-29T20:10:13.630Z,5.60
2022-10-29T20:12:46.399Z,7.15
2022-10-29T20:15:19.318Z,6.38
2022-10-29T20:17:52.317Z,6.10
2022-10-29T20:20:26.528Z,7.07
2022-10-29T20:23:00.048Z,6.28
2022-10-29T20:25:35.256Z,6.30
2022-10-29T20:28:07.979Z,6.43
2022-10-29T20:30:40.771Z,6.53
2022-10-29T20:33:13.845Z,5.90
2022-10-29T20:38:19.209Z,6.70
2022-10-29T20:40:53.578Z,6.13
2022-10-29T20:43:26.567Z,6.55
2022-10-29T20:46:02.789Z,6.20
2022-10-29T20:48:36.291Z,6.78
2022-10-29T20:51:11.474Z,6.38
2022-10-29T20:53:44.407Z,5.80
2022-10-29T20:56:19.053Z,6.72
2022-10-29T20:58:51.801Z,6.38
2022-10-29T21:01:26.107Z,6.05
2022-10-29T21:03:58.929Z,6.22
2022-10-29T21:06:31.659Z,7.13
2022-10-29T21:09:04.563Z,6.28
2022-10-29T21:11:38.877Z,6.88
2022-10-29T21:14:11.613Z,6.28
2022-10-29T21:16:44.264Z,6.22
2022-10-29T21:19:16.875Z,7.40
2022-10-29T21:21:49.658Z,6.32
2022-10-29T21:24:22.354Z,6.07
2022-10-29T21:26:56.382Z,5.75
2022-10-29T21:29:29.230Z,6.97
2022-10-29T21:32:02.103Z,6.90
2022-10-29T21:34:34.850Z,6.93
2022-10-29T21:37:07.580Z,6.45
2022-10-29T21:39:40.272Z,6.75
2022-10-29T21:42:14.444Z,6.78
2022-10-29T21:44:47.144Z,6.57
2022-10-29T21:47:19.891Z,5.65
2022-10-29T21:49:52.704Z,6.85
2022-10-29T21:52:25.367Z,6.25
2022-10-29T21:54:58.252Z,6.50
2022-10-29T21:57:32.393Z,7.22
2022-10-29T22:00:07.064Z,7.43
2022-10-29T22:02:39.748Z,6.45
2022-10-29T22:05:12.433Z,6.90
2022-10-29T22:07:45.500Z,7.35
2022-10-29T22:12:53.094Z,6.78
2022-10-29T22:15:25.788Z,6.40
2022-10-29T22:17:58.454Z,7.32
2022-10-29T22:20:31.241Z,6.25
2022-10-29T22:23:04.553Z,6.47
2022-10-29T22:25:37.362Z,6.97
2022-10-29T22:28:11.285Z,7.25
2022-10-29T22:30:44.021Z,6.78
2022-10-29T22:33:16.650Z,6.50
2022-10-29T22:35:49.283Z,6.85
2022-10-29T22:38:22.366Z,6.97
2022-10-29T22:43:29.117Z,6.10
2022-10-29T22:46:02.105Z,7.05
2022-10-29T22:51:11.505Z,6.47
2022-10-29T22:53:45.095Z,7.22
2022-10-29T22:56:19.851Z,7.63
2022-10-29T22:58:54.591Z,7.20
2022-10-29T23:01:29.636Z,6.70
2022-10-29T23:04:02.996Z,6.60
2022-10-29T23:06:36.670Z,6.43
2022-10-29T23:09:09.463Z,9.30
2022-10-29T23:11:42.112Z,6.82
2022-10-29T23:14:16.787Z,7.03
2022-10-29T23:16:49.477Z,7.43
2022-10-29T23:19:22.759Z,6.93
2022-10-29T23:21:55.430Z,6.35
2022-10-29T23:24:28.354Z,6.57
2022-10-29T23:27:01.085Z,6.55
2022-10-29T23:29:35.066Z,6.90
2022-10-29T23:32:07.694Z,6.50
2022-10-29T23:34:40.357Z,6.95
2022-10-29T23:37:13.117Z,7.38
2022-10-29T23:39:45.831Z,6.60
2022-10-29T23:42:18.574Z,6.63
2022-10-29T23:44:52.703Z,6.70
2022-10-29T23:47:25.337Z,6.22
2022-10-29T23:49:58.087Z,7.13
2022-10-29T23:52:31.185Z,7.30
2022-10-29T23:55:04.016Z,6.22
2022-10-29T23:57:36.768Z,6.80
